createdAt,value
2023-11-22T07:10:41.892Z,8.10
2023-11-22T07:13:08.574Z,9.20
2023-11-22T07:15:35.076Z,10.00
2023-11-22T07:18:01.790Z,9.20
2023-11-22T07:20:28.608Z,9.40
2023-11-22T07:22:58.075Z,9.30
2023-11-22T07:25:27.462Z,8.50
2023-11-22T07:27:54.390Z,9.10
2023-11-22T07:30:23.540Z,8.00
2023-11-22T07:32:52.510Z,9.20
2023-11-22T07:35:20.613Z,7.80
2023-11-22T07:37:48.534Z,8.10
2023-11-22T07:40:15.121Z,7.60
2023-11-22T07:42:43.068Z,9.10
2023-11-22T07:45:12.383Z,8.10
2023-11-22T07:47:41.009Z,7.00
2023-11-22T07:50:11.819Z,6.80
2023-11-22T07:52:40.752Z,7.50
2023-11-22T07:55:08.830Z,6.70
2023-11-22T07:57:35.717Z,7.80
2023-11-22T08:00:05.692Z,6.60
2023-11-22T08:02:43.807Z,7.40
2023-11-22T08:05:10.601Z,6.10
2023-11-22T08:22:40.801Z,6.70
2023-11-22T08:25:09.630Z,6.90
2023-11-22T08:27:37.046Z,7.60
2023-11-22T08:30:06.383Z,6.40
2023-11-22T08:32:34.476Z,6.60
2023-11-22T08:35:02.640Z,5.80
2023-11-22T08:37:30.627Z,5.50
2023-11-22T08:39:57.964Z,4.80
2023-11-22T08:42:25.083Z,4.60
2023-11-22T08:44:52.600Z,4.50
2023-11-22T08:47:19.808Z,3.80
2023-11-22T08:49:49.618Z,4.60
2023-11-22T08:52:16.991Z,4.70
2023-11-22T08:54:44.016Z,4.60
2023-11-22T08:57:11.358Z,5.00
2023-11-22T08:59:39.665Z,5.40
2023-11-22T09:02:09.182Z,5.10
2023-11-22T09:04:36.978Z,4.70
2023-11-22T09:07:05.042Z,4.70
2023-11-22T09:09:32.491Z,4.80
2023-11-22T09:12:00.336Z,5.10
2023-11-22T09:14:27.717Z,5.00
2023-11-22T09:16:56.185Z,5.20
2023-11-22T09:19:24.333Z,5.30
2023-11-22T09:21:51.999Z,4.10
2023-11-22T09:24:19.079Z,4.80
2023-11-22T09:26:46.836Z,4.20
2023-11-22T09:29:15.796Z,4.70
2023-11-22T09:31:44.204Z,3.80
2023-11-22T09:34:12.322Z,4.30
2023-11-22T09:36:40.087Z,5.20
2023-11-22T09:39:10.151Z,4.50
2023-11-22T09:41:37.532Z,4.30
2023-11-22T09:44:06.598Z,5.20
2023-11-22T09:46:35.978Z,5.20
2023-11-22T09:49:03.965Z,4.90
2023-11-22T09:51:33.681Z,5.40
2023-11-22T09:54:08.502Z,4.80
2023-11-22T09:56:38.513Z,4.70
2023-11-22T09:59:07.449Z,5.50
2023-11-22T10:01:38.261Z,5.10
2023-11-22T10:04:08.711Z,5.40
2023-11-22T10:06:36.935Z,5.40
2023-11-22T10:09:09.917Z,5.50
2023-11-22T10:11:40.132Z,5.20
2023-11-22T10:14:07.344Z,5.50
2023-11-22T10:16:34.373Z,4.80
2023-11-22T10:19:01.445Z,5.50
2023-11-22T10:21:31.526Z,6.00
2023-11-22T10:24:02.996Z,5.50
2023-11-22T10:26:30.279Z,5.10
2023-11-22T10:28:58.180Z,5.30
2023-11-22T10:31:26.108Z,5.10
2023-11-22T10:33:55.273Z,4.80
2023-11-22T10:36:22.652Z,5.00
2023-11-22T10:38:50.078Z,7.00
2023-11-22T10:41:17.480Z,4.50
2023-11-22T10:43:45.721Z,4.00
2023-11-22T10:46:14.245Z,4.90
2023-11-22T10:48:41.670Z,5.10
2023-11-22T10:51:08.714Z,4.90
2023-11-22T10:53:37.219Z,5.10
2023-11-22T10:56:16.997Z,5.20
2023-11-22T10:58:49.105Z,5.40
2023-11-22T11:01:23.335Z,5.20
2023-11-22T11:03:58.677Z,5.40
2023-11-22T11:06:33.016Z,4.90
2023-11-22T11:09:07.628Z,5.90
2023-11-22T11:11:35.755Z,5.90
2023-11-22T11:14:06.890Z,6.00
2023-11-22T11:16:42.620Z,5.70
2023-11-22T11:19:11.290Z,5.10
2023-11-22T11:21:38.444Z,5.40
2023-11-22T11:24:05.748Z,5.00
2023-11-22T11:26:39.078Z,6.20
2023-11-22T11:29:08.665Z,5.20
2023-11-22T11:31:41.143Z,4.90
2023-11-22T11:34:09.573Z,5.70
2023-11-22T11:36:38.896Z,4.80
2023-11-22T11:39:12.131Z,5.80
2023-11-22T11:41:40.692Z,5.60
2023-11-22T11:44:10.497Z,5.70
2023-11-22T11:46:41.126Z,5.30
2023-11-22T11:49:11.603Z,5.90
2023-11-22T11:51:39.535Z,5.80
2023-11-22T11:54:07.032Z,5.80
2023-11-22T11:56:37.518Z,6.30
2023-11-22T11:59:04.679Z,6.30
2023-11-22T12:01:34.169Z,6.70
2023-11-22T12:04:02.734Z,6.00
2023-11-22T12:06:30.218Z,5.90
2023-11-22T12:08:57.284Z,5.60
2023-11-22T12:11:24.304Z,6.10
2023-11-22T12:13:53.543Z,6.20
2023-11-22T12:16:20.575Z,6.20
2023-11-22T12:33:52.819Z,6.40
2023-11-22T12:36:21.542Z,6.70
2023-11-22T12:38:48.687Z,6.70
2023-11-22T12:41:16.381Z,6.30
2023-11-22T12:43:48.938Z,6.90
2023-11-22T12:46:19.302Z,6.40
2023-11-22T12:48:46.551Z,6.30
2023-11-22T12:51:27.815Z,6.50
2023-11-22T12:53:55.601Z,6.50
2023-11-22T12:56:22.975Z,6.40
2023-11-22T12:58:50.389Z,6.80
2023-11-22T13:01:17.689Z,6.50
2023-11-22T13:03:45.068Z,6.90
2023-11-22T13:06:12.581Z,6.40
2023-11-22T13:08:40.274Z,6.60
2023-11-22T13:11:08.925Z,6.30
2023-11-22T13:13:36.556Z,5.50
2023-11-22T13:18:33.517Z,6.50
2023-11-22T13:21:00.912Z,7.10
2023-11-22T13:23:27.975Z,6.00
2023-11-22T13:25:55.002Z,6.80
2023-11-22T13:28:22.237Z,6.20
2023-11-22T13:30:50.311Z,6.60
2023-11-22T13:33:17.444Z,6.80
2023-11-22T13:35:45.777Z,6.60
2023-11-22T13:38:13.085Z,6.40
2023-11-22T13:40:47.108Z,7.10
2023-11-22T13:43:14.961Z,7.20
2023-11-22T13:45:42.915Z,9.20
2023-11-22T13:48:13.051Z,6.50
2023-11-22T13:50:40.390Z,6.50
2023-11-22T13:53:07.483Z,7.10
2023-11-22T13:55:34.536Z,6.90
2023-11-22T13:58:01.746Z,6.70
2023-11-22T14:00:34.311Z,7.30
2023-11-22T14:03:09.165Z,6.40
2023-11-22T14:05:38.871Z,7.40
2023-11-22T14:08:07.743Z,7.10
2023-11-22T14:10:35.112Z,7.30
2023-11-22T14:13:04.145Z,7.90
2023-11-22T14:15:32.052Z,7.20
2023-11-22T14:17:59.401Z,7.00
2023-11-22T14:20:26.862Z,7.60
2023-11-22T14:22:54.282Z,7.00
2023-11-22T14:25:22.364Z,7.30
2023-11-22T14:27:54.006Z,7.60
2023-11-22T14:30:22.560Z,7.70
2023-11-22T14:32:51.124Z,7.90
2023-11-22T14:35:18.909Z,7.60
2023-11-22T14:37:46.062Z,8.00
2023-11-22T14:40:16.948Z,7.80
2023-11-22T14:42:45.825Z,7.60
2023-11-22T14:45:13.858Z,8.10
2023-11-22T14:47:41.572Z,7.50
2023-11-22T14:50:12.893Z,7.30
2023-11-22T14:52:40.917Z,8.00
2023-11-22T14:55:10.521Z,8.60
2023-11-22T14:57:38.365Z,7.60
2023-11-22T15:00:10.820Z,8.00
2023-11-22T15:02:38.074Z,7.90
2023-11-22T15:05:12.183Z,8.70
2023-11-22T15:07:42.678Z,7.80
2023-11-22T15:10:16.013Z,7.00
2023-11-22T15:12:43.726Z,7.60
2023-11-22T15:15:12.284Z,8.10
2023-11-22T15:17:39.556Z,7.70
2023-11-22T15:20:10.658Z,8.10
2023-11-22T15:22:38.370Z,8.80
2023-11-22T15:25:06.569Z,7.40
2023-11-22T15:27:33.725Z,7.30
2023-11-22T15:30:00.834Z,8.20
2023-11-22T15:32:28.283Z,9.40
2023-11-22T15:34:55.376Z,8.00
2023-11-22T15:37:22.317Z,8.20
2023-11-22T15:39:49.248Z,8.50
2023-11-22T15:42:17.368Z,9.30
2023-11-22T15:44:44.500Z,9.00
2023-11-22T15:47:14.592Z,9.80
2023-11-22T15:49:42.518Z,9.00
2023-11-22T15:52:09.708Z,7.70
2023-11-22T15:54:36.753Z,4.40
2023-11-22T15:57:04.247Z,8.30
2023-11-22T15:59:31.384Z,4.80
2023-11-22T16:01:58.561Z,7.40
2023-11-22T16:04:25.697Z,8.50
2023-11-22T16:06:52.802Z,8.00
2023-11-22T16:09:20.027Z,8.30
2023-11-22T16:11:47.324Z,8.10
2023-11-22T16:14:16.356Z,7.60
2023-11-22T16:16:43.778Z,6.30
2023-11-22T16:19:11.911Z,6.00
2023-11-22T16:21:40.719Z,5.60
2023-11-22T16:24:08.402Z,5.20
2023-11-22T16:26:35.610Z,6.00
2023-11-22T16:29:02.730Z,6.90
2023-11-22T16:31:29.853Z,6.90
2023-11-22T16:33:58.988Z,5.90
2023-11-22T16:36:26.546Z,5.90
2023-11-22T16:38:55.919Z,5.80
2023-11-22T16:41:25.973Z,5.10
2023-11-22T16:43:53.569Z,5.80
2023-11-22T16:46:20.642Z,5.50
2023-11-22T16:48:47.808Z,5.20
2023-11-22T16:51:16.921Z,5.40
2023-11-22T16:53:44.319Z,4.40
2023-11-22T16:56:11.372Z,4.10
2023-11-22T16:58:39.630Z,4.50
2023-11-22T17:01:06.946Z,4.30
2023-11-22T17:03:34.267Z,4.90
2023-11-22T17:06:01.648Z,4.40
2023-11-22T17:08:28.960Z,4.30
2023-11-22T17:10:56.094Z,4.40
2023-11-22T17:13:23.161Z,4.40
2023-11-22T17:15:50.084Z,4.10
2023-11-22T17:18:17.511Z,4.00
2023-11-22T17:20:44.824Z,3.70
2023-11-22T17:23:12.453Z,4.20
2023-11-22T17:25:39.661Z,4.50
2023-11-22T17:28:06.824Z,4.50
2023-11-22T17:30:34.931Z,4.50
2023-11-22T17:33:02.447Z,4.00
2023-11-22T17:35:29.734Z,4.30
2023-11-22T17:37:59.213Z,4.10
2023-11-22T17:40:26.950Z,4.20
2023-11-22T17:42:54.296Z,4.50
2023-11-22T17:45:21.480Z,4.50
2023-11-22T17:47:48.829Z,4.90
2023-11-22T17:50:19.174Z,4.10
2023-11-22T17:52:47.757Z,4.30
2023-11-22T17:55:15.452Z,4.10
2023-11-22T17:57:42.777Z,4.50
2023-11-22T18:00:11.198Z,4.10
2023-11-22T18:02:41.731Z,4.20
2023-11-22T18:05:09.136Z,3.90
2023-11-22T18:07:38.581Z,4.40
2023-11-22T18:10:09.266Z,3.90
2023-11-22T18:12:36.451Z,3.50
2023-11-22T18:15:03.949Z,3.60
2023-11-22T18:17:31.555Z,3.60
2023-11-22T18:19:59.106Z,3.90
2023-11-22T18:22:26.185Z,4.40
2023-11-22T18:24:53.352Z,4.10
2023-11-22T18:27:20.335Z,3.20
2023-11-22T18:29:47.326Z,3.90
2023-11-22T18:32:14.464Z,4.40
2023-11-22T18:34:42.128Z,4.40
2023-11-22T18:37:09.178Z,4.50
2023-11-22T18:39:36.316Z,5.10
2023-11-22T18:42:04.486Z,4.50
2023-11-22T18:44:32.155Z,4.60
2023-11-22T18:46:59.388Z,4.50
2023-11-22T18:49:28.301Z,4.60
2023-11-22T18:51:55.313Z,4.80
2023-11-22T18:54:22.492Z,5.10
2023-11-22T18:56:49.754Z,5.10
2023-11-22T18:59:16.920Z,2.70
2023-11-22T19:01:44.215Z,4.70
2023-11-22T19:04:11.340Z,4.80
2023-11-22T19:06:38.942Z,4.30
2023-11-22T19:09:11.215Z,4.50
2023-11-22T19:14:08.709Z,3.90
2023-11-22T19:16:35.860Z,4.80
2023-11-22T19:19:03.635Z,4.80
2023-11-22T19:21:32.992Z,4.70
2023-11-22T19:24:02.543Z,3.80
2023-11-22T19:26:34.492Z,4.00
2023-11-22T19:29:02.271Z,3.80
2023-11-22T19:31:30.070Z,3.40
2023-11-22T19:33:57.658Z,4.00
2023-11-22T19:36:25.916Z,4.30
2023-11-22T19:38:55.465Z,3.60
2023-11-22T19:41:23.114Z,3.10
2023-11-22T19:43:50.535Z,4.20
2023-11-22T19:46:17.727Z,3.20
2023-11-22T19:48:45.231Z,3.30
2023-11-22T19:51:13.290Z,3.50
2023-11-22T19:53:40.387Z,3.50
2023-11-22T19:56:07.841Z,3.60
2023-11-22T19:58:35.578Z,3.30
2023-11-22T20:01:02.782Z,3.50
2023-11-22T20:03:30.086Z,3.50
2023-11-22T20:05:57.208Z,2.90
2023-11-22T20:08:24.392Z,3.90
2023-11-22T20:10:51.491Z,3.60
2023-11-22T20:13:18.550Z,3.40
2023-11-22T20:15:45.719Z,2.80
2023-11-22T20:18:12.893Z,3.10
2023-11-22T20:20:40.155Z,3.60
2023-11-22T20:23:07.881Z,2.20
2023-11-22T20:25:34.971Z,2.80
2023-11-22T20:28:02.513Z,2.90
2023-11-22T20:30:29.646Z,3.00
2023-11-22T20:32:56.929Z,3.20
2023-11-22T20:35:24.099Z,2.70
2023-11-22T20:37:51.093Z,2.90
2023-11-22T20:40:18.073Z,3.00
2023-11-22T20:42:45.275Z,3.20
2023-11-22T20:45:12.335Z,2.60
2023-11-22T20:47:41.484Z,3.30
2023-11-22T20:50:10.240Z,3.10
2023-11-22T20:52:37.433Z,3.20
2023-11-22T20:55:09.776Z,3.00
2023-11-22T20:57:38.756Z,3.10
2023-11-22T21:00:12.943Z,3.30
2023-11-22T21:02:40.866Z,3.00
2023-11-22T21:05:08.826Z,3.40
2023-11-22T21:07:36.083Z,3.20
2023-11-22T21:10:03.475Z,3.70
2023-11-22T21:12:30.697Z,3.20
2023-11-22T21:14:58.387Z,3.40
2023-11-22T21:17:36.723Z,3.50
2023-11-22T21:20:10.909Z,3.20
2023-11-22T21:22:39.097Z,3.40
2023-11-22T21:25:09.845Z,3.20
2023-11-22T21:27:37.750Z,3.20
2023-11-22T21:30:06.128Z,3.80
2023-11-22T21:32:33.814Z,3.70
2023-11-22T21:35:00.982Z,3.40
2023-11-22T21:37:28.383Z,3.70
2023-11-22T21:39:56.378Z,3.20
2023-11-22T21:42:23.344Z,3.30
2023-11-22T21:44:50.435Z,3.70
2023-11-22T21:47:17.709Z,3.60
2023-11-22T21:49:44.752Z,2.90
2023-11-22T21:52:11.708Z,3.30
2023-11-22T21:54:39.354Z,2.90
2023-11-22T21:57:06.906Z,3.60
2023-11-22T21:59:35.409Z,3.90
2023-11-22T22:02:02.914Z,3.30
2023-11-22T22:04:30.241Z,3.30
2023-11-22T22:06:57.340Z,3.20
2023-11-22T22:09:24.529Z,2.90
2023-11-22T22:11:51.568Z,3.10
2023-11-22T22:14:18.954Z,2.30
2023-11-22T22:16:48.010Z,3.10
2023-11-22T22:19:15.553Z,3.50
2023-11-22T22:21:42.738Z,2.20
2023-11-22T22:24:10.072Z,3.20
2023-11-22T22:26:37.335Z,2.60
2023-11-22T22:29:05.358Z,1.90
2023-11-22T22:31:32.404Z,2.90
2023-11-22T22:33:59.514Z,3.00
2023-11-22T22:36:26.546Z,3.30
2023-11-22T22:38:53.609Z,2.90
2023-11-22T22:41:21.157Z,3.20
2023-11-22T22:43:48.528Z,3.00
2023-11-22T22:46:16.054Z,2.60
2023-11-22T22:48:46.347Z,3.60
2023-11-22T22:51:14.633Z,3.20
2023-11-22T22:53:42.574Z,3.00
2023-11-22T22:56:09.602Z,3.20
2023-11-22T22:58:37.888Z,3.50
2023-11-22T23:01:05.635Z,2.20
2023-11-22T23:03:33.215Z,3.60
2023-11-22T23:06:00.440Z,2.20
2023-11-22T23:08:28.726Z,2.90
2023-11-22T23:10:55.929Z,3.20
2023-11-22T23:13:23.099Z,1.90
2023-11-22T23:15:50.085Z,2.40
2023-11-22T23:18:17.153Z,2.90
2023-11-22T23:20:49.733Z,2.90
2023-11-22T23:23:18.579Z,2.00
2023-11-22T23:25:45.874Z,2.40
2023-11-22T23:28:13.174Z,2.90
2023-11-22T23:30:40.394Z,1.80
2023-11-22T23:33:08.589Z,2.60
2023-11-22T23:35:35.931Z,2.30
2023-11-22T23:38:03.316Z,2.80
2023-11-22T23:40:30.738Z,2.10
2023-11-22T23:42:59.169Z,2.90
2023-11-22T23:45:26.772Z,2.90
2023-11-22T23:47:54.297Z,2.40
2023-11-22T23:50:21.524Z,2.10
2023-11-22T23:52:50.256Z,3.20
2023-11-22T23:55:17.694Z,3.20
2023-11-22T23:57:45.152Z,3.60
